sensor_id;sensor_type;location;lat;lon;timestamp;pressure;altitude;pressure_sealevel;temperature;humidity
70921;BME280;58572;48.110;19.838;2023-09-18T00:01:05;98133.38;;;19.29;82.26
70921;BME280;58572;48.110;19.838;2023-09-18T00:03:35;98132.63;;;19.91;79.34
70921;BME280;58572;48.110;19.838;2023-09-18T00:06:02;98130.75;;;19.62;80.85
70921;BME280;58572;48.110;19.838;2023-09-18T00:08:29;98132.34;;;19.63;81.02
70921;BME280;58572;48.110;19.838;2023-09-18T00:10:56;98013.41;;;18.81;81.17
70921;BME280;58572;48.110;19.838;2023-09-18T00:13:23;98125.47;;;19.48;81.62
70921;BME280;58572;48.110;19.838;2023-09-18T00:15:54;98115.31;;;19.40;81.35
70921;BME280;58572;48.110;19.838;2023-09-18T00:18:21;98123.09;;;19.38;81.75
70921;BME280;58572;48.110;19.838;2023-09-18T00:20:50;98118.53;;;19.42;82.30
70921;BME280;58572;48.110;19.838;2023-09-18T00:23:17;98121.28;;;19.42;81.28
70921;BME280;58572;48.110;19.838;2023-09-18T00:25:44;98122.28;;;19.37;81.89
70921;BME280;58572;48.110;19.838;2023-09-18T00:28:11;98122.34;;;19.29;82.14
70921;BME280;58572;48.110;19.838;2023-09-18T00:30:42;98119.94;;;19.27;81.88
70921;BME280;58572;48.110;19.838;2023-09-18T00:33:09;98083.31;;;18.97;81.60
70921;BME280;58572;48.110;19.838;2023-09-18T00:35:36;98128.81;;;19.33;81.60
70921;BME280;58572;48.110;19.838;2023-09-18T00:38:05;98121.97;;;19.39;81.63
70921;BME280;58572;48.110;19.838;2023-09-18T00:40:32;98115.72;;;19.51;81.32
70921;BME280;58572;48.110;19.838;2023-09-18T00:42:59;98116.88;;;19.70;79.64
70921;BME280;58572;48.110;19.838;2023-09-18T00:45:27;98072.31;;;20.47;73.84
70921;BME280;58572;48.110;19.838;2023-09-18T00:47:54;98114.41;;;21.25;71.33
70921;BME280;58572;48.110;19.838;2023-09-18T00:50:21;98117.22;;;21.53;70.10
70921;BME280;58572;48.110;19.838;2023-09-18T00:52:50;98112.84;;;21.52;69.59
70921;BME280;58572;48.110;19.838;2023-09-18T00:55:18;98110.31;;;21.47;69.91
70921;BME280;58572;48.110;19.838;2023-09-18T00:57:46;98106.16;;;21.53;69.50
70921;BME280;58572;48.110;19.838;2023-09-18T01:00:13;98113.09;;;21.35;69.79
70921;BME280;58572;48.110;19.838;2023-09-18T01:02:43;98107.53;;;21.59;68.87
70921;BME280;58572;48.110;19.838;2023-09-18T01:05:11;98105.69;;;21.51;69.07
70921;BME280;58572;48.110;19.838;2023-09-18T01:07:39;98109.50;;;21.47;69.36
70921;BME280;58572;48.110;19.838;2023-09-18T01:10:07;98120.72;;;21.26;69.90
70921;BME280;58572;48.110;19.838;2023-09-18T01:12:40;98111.63;;;21.01;70.38
70921;BME280;58572;48.110;19.838;2023-09-18T01:15:12;98026.50;;;20.46;71.06
70921;BME280;58572;48.110;19.838;2023-09-18T01:17:42;98115.88;;;20.98;70.71
70921;BME280;58572;48.110;19.838;2023-09-18T01:20:11;98114.72;;;21.12;70.25
70921;BME280;58572;48.110;19.838;2023-09-18T01:22:39;98115.88;;;21.11;70.16
70921;BME280;58572;48.110;19.838;2023-09-18T01:25:07;98123.47;;;21.14;70.06
70921;BME280;58572;48.110;19.838;2023-09-18T01:27:33;98113.56;;;21.13;70.08
70921;BME280;58572;48.110;19.838;2023-09-18T01:30:01;98116.56;;;21.08;70.27
70921;BME280;58572;48.110;19.838;2023-09-18T01:32:30;98119.53;;;20.66;71.73
70921;BME280;58572;48.110;19.838;2023-09-18T01:35:00;98128.16;;;20.64;72.89
70921;BME280;58572;48.110;19.838;2023-09-18T01:37:31;98126.34;;;20.35;74.12
70921;BME280;58572;48.110;19.838;2023-09-18T01:40:00;98122.69;;;19.77;76.86
70921;BME280;58572;48.110;19.838;2023-09-18T01:42:27;98129.41;;;19.89;76.28
70921;BME280;58572;48.110;19.838;2023-09-18T01:44:55;98131.47;;;20.46;72.92
70921;BME280;58572;48.110;19.838;2023-09-18T01:47:22;98126.44;;;20.60;72.27
70921;BME280;58572;48.110;19.838;2023-09-18T01:49:50;98120.59;;;20.98;70.87
70921;BME280;58572;48.110;19.838;2023-09-18T01:52:17;98100.56;;;21.13;69.58
70921;BME280;58572;48.110;19.838;2023-09-18T01:54:44;98113.81;;;21.32;69.28
70921;BME280;58572;48.110;19.838;2023-09-18T01:57:12;98119.13;;;21.25;69.33
70921;BME280;58572;48.110;19.838;2023-09-18T01:59:39;98118.41;;;21.03;69.94
70921;BME280;58572;48.110;19.838;2023-09-18T02:02:07;98117.03;;;20.85;70.77
70921;BME280;58572;48.110;19.838;2023-09-18T02:04:35;98119.81;;;20.85;71.19
70921;BME280;58572;48.110;19.838;2023-09-18T02:07:02;98122.00;;;20.92;70.48
70921;BME280;58572;48.110;19.838;2023-09-18T02:09:29;98118.66;;;20.86;70.86
70921;BME280;58572;48.110;19.838;2023-09-18T02:11:56;98109.91;;;20.84;70.74
70921;BME280;58572;48.110;19.838;2023-09-18T02:14:25;98120.72;;;21.01;70.12
70921;BME280;58572;48.110;19.838;2023-09-18T02:16:52;98115.41;;;21.09;69.85
70921;BME280;58572;48.110;19.838;2023-09-18T02:19:19;98114.25;;;21.10;69.55
70921;BME280;58572;48.110;19.838;2023-09-18T02:21:47;98109.44;;;20.94;70.13
70921;BME280;58572;48.110;19.838;2023-09-18T02:24:14;98112.28;;;20.73;70.91
70921;BME280;58572;48.110;19.838;2023-09-18T02:26:41;98111.81;;;20.71;72.77
70921;BME280;58572;48.110;19.838;2023-09-18T02:29:08;98106.63;;;20.58;72.66
70921;BME280;58572;48.110;19.838;2023-09-18T02:31:38;98119.06;;;20.76;71.85
70921;BME280;58572;48.110;19.838;2023-09-18T02:34:06;98113.31;;;20.57;71.45
70921;BME280;58572;48.110;19.838;2023-09-18T02:36:34;98112.34;;;20.40;72.35
70921;BME280;58572;48.110;19.838;2023-09-18T02:39:01;98112.38;;;20.65;71.21
70921;BME280;58572;48.110;19.838;2023-09-18T02:41:28;98102.72;;;20.59;72.65
70921;BME280;58572;48.110;19.838;2023-09-18T02:43:55;98107.78;;;20.57;72.70
70921;BME280;58572;48.110;19.838;2023-09-18T02:46:23;98119.03;;;19.65;76.86
70921;BME280;58572;48.110;19.838;2023-09-18T02:48:53;98106.94;;;19.57;77.78
70921;BME280;58572;48.110;19.838;2023-09-18T02:51:20;98090.88;;;19.30;79.06
70921;BME280;58572;48.110;19.838;2023-09-18T02:53:47;98106.22;;;19.19;79.79
70921;BME280;58572;48.110;19.838;2023-09-18T02:56:14;98102.66;;;19.18;80.12
70921;BME280;58572;48.110;19.838;2023-09-18T02:58:41;98111.91;;;19.13;79.91
70921;BME280;58572;48.110;19.838;2023-09-18T03:01:08;98118.44;;;19.09;80.53
70921;BME280;58572;48.110;19.838;2023-09-18T03:03:36;98120.84;;;19.10;80.11
70921;BME280;58572;48.110;19.838;2023-09-18T03:06:05;98111.53;;;18.94;81.07
70921;BME280;58572;48.110;19.838;2023-09-18T03:08:32;98109.94;;;18.93;81.28
70921;BME280;58572;48.110;19.838;2023-09-18T03:11:00;98114.78;;;18.96;80.93
70921;BME280;58572;48.110;19.838;2023-09-18T03:13:29;98110.22;;;19.00;80.81
70921;BME280;58572;48.110;19.838;2023-09-18T03:15:56;98117.09;;;19.15;80.20
70921;BME280;58572;48.110;19.838;2023-09-18T03:18:23;98108.56;;;19.29;79.07
70921;BME280;58572;48.110;19.838;2023-09-18T03:20:50;98113.81;;;19.22;78.99
70921;BME280;58572;48.110;19.838;2023-09-18T03:23:19;98118.56;;;19.12;79.57
70921;BME280;58572;48.110;19.838;2023-09-18T03:25:46;98110.50;;;19.07;79.93
70921;BME280;58572;48.110;19.838;2023-09-18T03:28:13;98100.31;;;19.29;78.87
70921;BME280;58572;48.110;19.838;2023-09-18T03:30:40;98108.31;;;18.92;80.45
70921;BME280;58572;48.110;19.838;2023-09-18T03:33:07;98105.22;;;18.94;81.07
70921;BME280;58572;48.110;19.838;2023-09-18T03:35:45;98105.38;;;18.97;80.56
70921;BME280;58572;48.110;19.838;2023-09-18T03:38:12;98099.47;;;19.07;80.14
70921;BME280;58572;48.110;19.838;2023-09-18T03:40:41;98099.47;;;19.07;79.97
70921;BME280;58572;48.110;19.838;2023-09-18T03:43:09;98102.13;;;18.95;79.95
70921;BME280;58572;48.110;19.838;2023-09-18T03:45:37;98109.78;;;18.90;80.31
70921;BME280;58572;48.110;19.838;2023-09-18T03:48:06;98105.66;;;19.04;78.96
70921;BME280;58572;48.110;19.838;2023-09-18T03:50:33;98098.13;;;19.13;79.18
70921;BME280;58572;48.110;19.838;2023-09-18T03:53:00;98099.72;;;18.94;80.23
70921;BME280;58572;48.110;19.838;2023-09-18T03:55:27;98099.75;;;19.14;78.20
70921;BME280;58572;48.110;19.838;2023-09-18T03:57:56;98095.97;;;18.98;79.51
70921;BME280;58572;48.110;19.838;2023-09-18T04:00:24;98094.50;;;19.01;79.66
70921;BME280;58572;48.110;19.838;2023-09-18T04:02:51;98086.72;;;19.44;77.31
70921;BME280;58572;48.110;19.838;2023-09-18T04:05:19;98089.66;;;18.98;79.26
70921;BME280;58572;48.110;19.838;2023-09-18T04:07:46;98087.19;;;19.26;78.18
70921;BME280;58572;48.110;19.838;2023-09-18T04:10:13;98090.75;;;19.26;77.68
70921;BME280;58572;48.110;19.838;2023-09-18T04:12:45;98085.91;;;19.44;77.43
70921;BME280;58572;48.110;19.838;2023-09-18T04:15:15;98071.88;;;19.58;76.40
70921;BME280;58572;48.110;19.838;2023-09-18T04:17:43;98072.47;;;19.63;75.67
70921;BME280;58572;48.110;19.838;2023-09-18T04:20:10;98071.09;;;19.78;75.80
70921;BME280;58572;48.110;19.838;2023-09-18T04:22:43;98079.88;;;19.30;78.07
70921;BME280;58572;48.110;19.838;2023-09-18T04:25:11;98048.19;;;18.94;78.22
70921;BME280;58572;48.110;19.838;2023-09-18T04:27:39;98076.84;;;19.23;78.00
70921;BME280;58572;48.110;19.838;2023-09-18T04:30:07;98086.94;;;18.89;79.36
70921;BME280;58572;48.110;19.838;2023-09-18T04:32:36;98079.84;;;19.09;78.70
70921;BME280;58572;48.110;19.838;2023-09-18T04:35:04;98084.28;;;19.01;79.04
70921;BME280;58572;48.110;19.838;2023-09-18T04:37:35;98081.47;;;19.52;76.94
70921;BME280;58572;48.110;19.838;2023-09-18T04:40:04;98079.31;;;19.36;76.96
70921;BME280;58572;48.110;19.838;2023-09-18T04:42:36;98074.47;;;19.12;78.44
70921;BME280;58572;48.110;19.838;2023-09-18T04:45:04;98075.34;;;18.75;80.22
70921;BME280;58572;48.110;19.838;2023-09-18T04:47:32;98084.00;;;18.94;79.42
70921;BME280;58572;48.110;19.838;2023-09-18T04:50:00;98080.19;;;19.07;78.82
70921;BME280;58572;48.110;19.838;2023-09-18T04:52:34;98083.31;;;18.97;79.71
70921;BME280;58572;48.110;19.838;2023-09-18T04:55:01;98081.31;;;19.06;79.42
70921;BME280;58572;48.110;19.838;2023-09-18T04:57:28;98086.47;;;19.58;76.15
70921;BME280;58572;48.110;19.838;2023-09-18T04:59:55;98081.88;;;19.41;77.46
70921;BME280;58572;48.110;19.838;2023-09-18T05:02:22;98082.25;;;19.82;75.58
70921;BME280;58572;48.110;19.838;2023-09-18T05:04:50;98089.16;;;19.46;77.03
70921;BME280;58572;48.110;19.838;2023-09-18T05:07:19;98088.78;;;19.77;75.76
70921;BME280;58572;48.110;19.838;2023-09-18T05:09:46;98098.44;;;19.41;77.41
70921;BME280;58572;48.110;19.838;2023-09-18T05:12:13;98091.22;;;19.28;78.39
70921;BME280;58572;48.110;19.838;2023-09-18T05:14:41;98090.22;;;19.74;76.32
70921;BME280;58572;48.110;19.838;2023-09-18T05:17:10;98089.94;;;20.09;74.67
70921;BME280;58572;48.110;19.838;2023-09-18T05:19:38;98092.53;;;19.72;75.32
70921;BME280;58572;48.110;19.838;2023-09-18T05:22:05;98095.22;;;19.60;77.81
70921;BME280;58572;48.110;19.838;2023-09-18T05:24:33;98093.28;;;19.82;75.29
70921;BME280;58572;48.110;19.838;2023-09-18T05:27:00;98091.06;;;20.08;75.66
70921;BME280;58572;48.110;19.838;2023-09-18T05:29:28;98083.75;;;20.24;72.57
70921;BME280;58572;48.110;19.838;2023-09-18T05:31:55;98075.84;;;19.90;74.11
70921;BME280;58572;48.110;19.838;2023-09-18T05:34:23;98083.09;;;19.73;76.09
70921;BME280;58572;48.110;19.838;2023-09-18T05:36:51;98081.16;;;19.95;75.48
70921;BME280;58572;48.110;19.838;2023-09-18T05:39:18;98081.19;;;20.07;73.45
70921;BME280;58572;48.110;19.838;2023-09-18T05:41:47;98076.44;;;20.40;71.70
70921;BME280;58572;48.110;19.838;2023-09-18T05:44:14;98075.59;;;19.83;76.36
70921;BME280;58572;48.110;19.838;2023-09-18T05:46:42;98074.78;;;19.61;78.11
70921;BME280;58572;48.110;19.838;2023-09-18T05:49:09;98066.69;;;20.10;73.67
70921;BME280;58572;48.110;19.838;2023-09-18T05:51:36;98069.47;;;19.77;76.78
70921;BME280;58572;48.110;19.838;2023-09-18T05:54:03;98066.75;;;19.68;77.78
70921;BME280;58572;48.110;19.838;2023-09-18T05:56:30;98059.78;;;20.04;74.52
70921;BME280;58572;48.110;19.838;2023-09-18T05:58:59;98067.97;;;19.80;77.07
70921;BME280;58572;48.110;19.838;2023-09-18T06:01:26;98072.88;;;19.95;75.71
70921;BME280;58572;48.110;19.838;2023-09-18T06:03:53;98065.78;;;20.18;76.05
70921;BME280;58572;48.110;19.838;2023-09-18T06:06:21;98058.41;;;20.10;75.63
70921;BME280;58572;48.110;19.838;2023-09-18T06:08:48;98061.88;;;20.19;74.85
70921;BME280;58572;48.110;19.838;2023-09-18T06:11:15;98058.41;;;20.10;75.44
70921;BME280;58572;48.110;19.838;2023-09-18T06:13:42;98062.94;;;20.27;74.48
70921;BME280;58572;48.110;19.838;2023-09-18T06:16:11;98065.19;;;20.70;72.79
70921;BME280;58572;48.110;19.838;2023-09-18T06:18:38;98058.28;;;20.52;75.25
70921;BME280;58572;48.110;19.838;2023-09-18T06:21:05;98059.31;;;20.02;75.37
70921;BME280;58572;48.110;19.838;2023-09-18T06:23:33;98062.22;;;20.99;72.96
70921;BME280;58572;48.110;19.838;2023-09-18T06:26:00;98065.72;;;19.94;77.95
70921;BME280;58572;48.110;19.838;2023-09-18T06:28:30;98064.28;;;20.90;73.20
70921;BME280;58572;48.110;19.838;2023-09-18T06:30:57;98063.34;;;20.74;72.42
70921;BME280;58572;48.110;19.838;2023-09-18T06:33:25;98070.69;;;20.46;75.74
70921;BME280;58572;48.110;19.838;2023-09-18T06:35:53;98068.75;;;20.46;74.60
70921;BME280;58572;48.110;19.838;2023-09-18T06:38:20;98054.81;;;21.16;70.45
70921;BME280;58572;48.110;19.838;2023-09-18T06:40:47;98053.69;;;20.56;74.80
70921;BME280;58572;48.110;19.838;2023-09-18T06:43:15;98046.53;;;20.79;74.23
70921;BME280;58572;48.110;19.838;2023-09-18T06:45:43;98055.63;;;21.04;73.11
70921;BME280;58572;48.110;19.838;2023-09-18T06:48:10;98060.00;;;21.05;72.46
70921;BME280;58572;48.110;19.838;2023-09-18T06:50:38;98050.38;;;21.51;70.03
70921;BME280;58572;48.110;19.838;2023-09-18T06:53:05;98055.72;;;21.20;70.79
70921;BME280;58572;48.110;19.838;2023-09-18T06:55:33;98041.72;;;21.81;67.98
70921;BME280;58572;48.110;19.838;2023-09-18T06:58:00;98064.25;;;21.39;69.88
70921;BME280;58572;48.110;19.838;2023-09-18T07:00:27;98060.88;;;21.74;70.50
70921;BME280;58572;48.110;19.838;2023-09-18T07:02:55;98061.16;;;21.96;68.48
70921;BME280;58572;48.110;19.838;2023-09-18T07:05:22;98050.53;;;21.71;69.18
70921;BME280;58572;48.110;19.838;2023-09-18T07:07:51;98054.81;;;21.16;71.79
70921;BME280;58572;48.110;19.838;2023-09-18T07:10:18;98058.31;;;21.81;69.28
70921;BME280;58572;48.110;19.838;2023-09-18T07:12:45;98061.53;;;21.83;69.65
70921;BME280;58572;48.110;19.838;2023-09-18T07:15:12;98062.69;;;22.38;67.31
70921;BME280;58572;48.110;19.838;2023-09-18T07:17:39;98064.63;;;22.21;67.86
70921;BME280;58572;48.110;19.838;2023-09-18T07:20:07;98057.63;;;21.56;72.62
70921;BME280;58572;48.110;19.838;2023-09-18T07:22:39;98060.72;;;21.54;73.15
70921;BME280;58572;48.110;19.838;2023-09-18T07:25:08;98057.28;;;22.13;69.47
70921;BME280;58572;48.110;19.838;2023-09-18T07:27:35;98040.06;;;21.92;68.89
70921;BME280;58572;48.110;19.838;2023-09-18T07:30:05;98051.25;;;22.39;68.00
70921;BME280;58572;48.110;19.838;2023-09-18T07:32:33;98051.16;;;22.36;69.23
70921;BME280;58572;48.110;19.838;2023-09-18T07:35:00;98043.00;;;22.11;70.65
70921;BME280;58572;48.110;19.838;2023-09-18T07:37:27;98038.72;;;22.45;69.97
70921;BME280;58572;48.110;19.838;2023-09-18T07:39:54;98042.63;;;21.57;73.52
70921;BME280;58572;48.110;19.838;2023-09-18T07:42:25;98037.72;;;22.06;70.85
70921;BME280;58572;48.110;19.838;2023-09-18T07:44:52;98038.44;;;22.66;68.43
70921;BME280;58572;48.110;19.838;2023-09-18T07:47:20;98037.53;;;22.78;67.29
70921;BME280;58572;48.110;19.838;2023-09-18T07:49:48;98035.59;;;22.94;66.40
70921;BME280;58572;48.110;19.838;2023-09-18T07:52:16;98024.22;;;22.68;67.74
70921;BME280;58572;48.110;19.838;2023-09-18T07:54:43;98033.06;;;22.73;67.86
70921;BME280;58572;48.110;19.838;2023-09-18T07:57:11;98033.28;;;23.50;67.30
70921;BME280;58572;48.110;19.838;2023-09-18T07:59:40;98033.44;;;22.56;68.40
70921;BME280;58572;48.110;19.838;2023-09-18T08:02:08;98033.97;;;22.77;68.82
70921;BME280;58572;48.110;19.838;2023-09-18T08:04:36;98030.34;;;23.24;65.90
70921;BME280;58572;48.110;19.838;2023-09-18T08:07:03;98028.63;;;23.93;66.00
70921;BME280;58572;48.110;19.838;2023-09-18T08:09:31;98038.06;;;24.31;63.54
70921;BME280;58572;48.110;19.838;2023-09-18T08:12:02;98026.28;;;24.87;63.21
70921;BME280;58572;48.110;19.838;2023-09-18T08:14:29;98038.06;;;24.31;64.56
70921;BME280;58572;48.110;19.838;2023-09-18T08:16:58;98033.56;;;24.95;62.61
70921;BME280;58572;48.110;19.838;2023-09-18T08:19:26;98036.28;;;23.80;62.90
70921;BME280;58572;48.110;19.838;2023-09-18T08:21:54;98053.66;;;24.16;62.60
70921;BME280;58572;48.110;19.838;2023-09-18T08:24:21;98049.38;;;24.41;62.60
70921;BME280;58572;48.110;19.838;2023-09-18T08:26:49;98041.09;;;25.17;60.50
70921;BME280;58572;48.110;19.838;2023-09-18T08:29:16;98014.25;;;25.32;60.02
70921;BME280;58572;48.110;19.838;2023-09-18T08:31:43;98044.47;;;24.80;63.18
70921;BME280;58572;48.110;19.838;2023-09-18T08:34:11;98041.00;;;24.18;61.72
70921;BME280;58572;48.110;19.838;2023-09-18T08:36:39;98033.13;;;24.66;62.29
70921;BME280;58572;48.110;19.838;2023-09-18T08:39:06;98033.19;;;25.19;60.43
70921;BME280;58572;48.110;19.838;2023-09-18T08:41:38;98010.53;;;24.45;60.80
70921;BME280;58572;48.110;19.838;2023-09-18T08:44:09;98028.19;;;24.56;63.03
70921;BME280;58572;48.110;19.838;2023-09-18T08:46:36;98029.31;;;25.27;60.52
70921;BME280;58572;48.110;19.838;2023-09-18T08:49:05;98025.06;;;25.07;60.83
70921;BME280;58572;48.110;19.838;2023-09-18T08:51:35;98031.97;;;26.14;58.99
70921;BME280;58572;48.110;19.838;2023-09-18T08:54:04;98022.00;;;26.50;59.33
70921;BME280;58572;48.110;19.838;2023-09-18T08:56:33;98019.00;;;26.72;57.13
70921;BME280;58572;48.110;19.838;2023-09-18T08:59:00;98022.19;;;25.93;60.88
70921;BME280;58572;48.110;19.838;2023-09-18T09:01:28;98029.06;;;24.37;62.90
70921;BME280;58572;48.110;19.838;2023-09-18T09:03:55;98023.75;;;24.78;62.50
70921;BME280;58572;48.110;19.838;2023-09-18T09:06:22;98024.97;;;25.60;60.66
70921;BME280;58572;48.110;19.838;2023-09-18T09:08:51;98021.13;;;26.01;59.69
70921;BME280;58572;48.110;19.838;2023-09-18T09:11:18;98009.38;;;25.85;60.83
70921;BME280;58572;48.110;19.838;2023-09-18T09:13:46;98023.34;;;25.59;61.84
70921;BME280;58572;48.110;19.838;2023-09-18T09:16:13;98018.88;;;26.18;59.77
70921;BME280;58572;48.110;19.838;2023-09-18T09:18:47;98013.94;;;25.67;61.61
70921;BME280;58572;48.110;19.838;2023-09-18T09:21:15;98007.81;;;26.25;57.81
70921;BME280;58572;48.110;19.838;2023-09-18T09:23:44;98001.28;;;26.10;57.90
70921;BME280;58572;48.110;19.838;2023-09-18T09:26:17;98001.34;;;26.58;57.18
70921;BME280;58572;48.110;19.838;2023-09-18T09:28:45;98003.41;;;26.68;59.45
70921;BME280;58572;48.110;19.838;2023-09-18T09:31:23;97998.22;;;26.66;57.75
70921;BME280;58572;48.110;19.838;2023-09-18T09:33:52;97995.59;;;27.50;55.83
70921;BME280;58572;48.110;19.838;2023-09-18T09:36:20;97984.53;;;27.02;56.55
70921;BME280;58572;48.110;19.838;2023-09-18T09:38:47;97980.16;;;27.01;55.94
70921;BME280;58572;48.110;19.838;2023-09-18T09:41:16;97982.16;;;27.80;53.98
70921;BME280;58572;48.110;19.838;2023-09-18T09:43:44;97980.53;;;27.79;54.83
70921;BME280;58572;48.110;19.838;2023-09-18T09:46:15;97977.84;;;27.10;55.17
70921;BME280;58572;48.110;19.838;2023-09-18T09:48:58;97971.72;;;27.63;51.90
70921;BME280;58572;48.110;19.838;2023-09-18T09:51:27;97929.28;;;27.32;51.09
70921;BME280;58572;48.110;19.838;2023-09-18T09:53:55;97943.81;;;27.81;55.42
70921;BME280;58572;48.110;19.838;2023-09-18T09:59:19;97971.91;;;28.55;52.15
70921;BME280;58572;48.110;19.838;2023-09-18T10:01:47;97975.00;;;27.93;51.44
70921;BME280;58572;48.110;19.838;2023-09-18T10:04:18;97979.56;;;26.78;56.28
70921;BME280;58572;48.110;19.838;2023-09-18T10:06:51;97972.59;;;27.01;52.51
70921;BME280;58572;48.110;19.838;2023-09-18T10:09:20;97964.06;;;27.53;53.53
70921;BME280;58572;48.110;19.838;2023-09-18T10:11:52;97989.09;;;26.25;54.19
70921;BME280;58572;48.110;19.838;2023-09-18T10:14:28;97978.00;;;27.46;53.65
70921;BME280;58572;48.110;19.838;2023-09-18T10:16:59;97985.59;;;27.45;53.93
70921;BME280;58572;48.110;19.838;2023-09-18T10:19:37;97976.16;;;27.85;52.55
70921;BME280;58572;48.110;19.838;2023-09-18T10:22:13;97982.41;;;26.85;53.18
70921;BME280;58572;48.110;19.838;2023-09-18T10:24:46;97994.66;;;27.24;52.16
70921;BME280;58572;48.110;19.838;2023-09-18T10:27:15;97988.16;;;26.11;55.21
70921;BME280;58572;48.110;19.838;2023-09-18T10:29:50;97978.22;;;28.06;51.14
70921;BME280;58572;48.110;19.838;2023-09-18T10:32:20;97978.25;;;28.13;51.68
70921;BME280;58572;48.110;19.838;2023-09-18T10:34:48;97971.38;;;26.44;54.61
70921;BME280;58572;48.110;19.838;2023-09-18T10:37:16;97974.44;;;27.49;53.82
70921;BME280;58572;48.110;19.838;2023-09-18T10:39:45;97974.78;;;27.37;54.07
70921;BME280;58572;48.110;19.838;2023-09-18T10:42:16;97972.25;;;27.10;51.74
70921;BME280;58572;48.110;19.838;2023-09-18T10:44:45;97978.06;;;26.36;54.98
70921;BME280;58572;48.110;19.838;2023-09-18T10:47:14;97972.88;;;26.34;54.81
70921;BME280;58572;48.110;19.838;2023-09-18T10:49:42;97960.47;;;26.80;54.00
70921;BME280;58572;48.110;19.838;2023-09-18T10:52:11;97958.50;;;26.84;55.11
70921;BME280;58572;48.110;19.838;2023-09-18T10:54:38;97930.88;;;26.17;52.91
70921;BME280;58572;48.110;19.838;2023-09-18T10:57:06;97946.16;;;25.93;55.19
70921;BME280;58572;48.110;19.838;2023-09-18T10:59:33;97930.59;;;26.84;54.87
70921;BME280;58572;48.110;19.838;2023-09-18T11:02:02;97957.53;;;26.58;55.21
70921;BME280;58572;48.110;19.838;2023-09-18T11:04:32;97947.00;;;26.92;54.00
70921;BME280;58572;48.110;19.838;2023-09-18T11:07:03;97951.53;;;26.08;54.21
70921;BME280;58572;48.110;19.838;2023-09-18T11:09:40;97950.38;;;27.19;54.42
70921;BME280;58572;48.110;19.838;2023-09-18T11:12:09;97933.31;;;27.39;54.16
70921;BME280;58572;48.110;19.838;2023-09-18T11:14:45;97945.34;;;25.89;54.55
70921;BME280;58572;48.110;19.838;2023-09-18T11:17:33;97930.63;;;26.91;54.17
70921;BME280;58572;48.110;19.838;2023-09-18T11:20:07;97923.06;;;27.71;55.01
70921;BME280;58572;48.110;19.838;2023-09-18T11:22:40;97925.78;;;26.81;53.54
70921;BME280;58572;48.110;19.838;2023-09-18T11:25:35;97925.44;;;27.65;53.46
70921;BME280;58572;48.110;19.838;2023-09-18T11:28:05;97936.56;;;26.27;54.67
70921;BME280;58572;48.110;19.838;2023-09-18T11:30:35;97924.31;;;26.97;54.93
70921;BME280;58572;48.110;19.838;2023-09-18T11:33:04;97924.94;;;26.69;55.79
70921;BME280;58572;48.110;19.838;2023-09-18T11:35:33;97914.59;;;27.50;53.63
70921;BME280;58572;48.110;19.838;2023-09-18T11:38:05;97906.72;;;27.98;52.61
70921;BME280;58572;48.110;19.838;2023-09-18T11:40:33;97896.78;;;28.18;51.93
70921;BME280;58572;48.110;19.838;2023-09-18T11:43:22;97905.81;;;27.51;53.30
70921;BME280;58572;48.110;19.838;2023-09-18T11:45:56;97903.97;;;28.41;51.43
70921;BME280;58572;48.110;19.838;2023-09-18T11:48:24;97900.00;;;28.27;50.71
70921;BME280;58572;48.110;19.838;2023-09-18T11:50:59;97897.53;;;27.76;53.03
70921;BME280;58572;48.110;19.838;2023-09-18T11:53:34;97890.41;;;28.25;50.93
70921;BME280;58572;48.110;19.838;2023-09-18T11:56:10;97887.16;;;28.62;51.35
70921;BME280;58572;48.110;19.838;2023-09-18T11:58:46;97890.31;;;27.72;50.50
70921;BME280;58572;48.110;19.838;2023-09-18T12:01:14;97878.31;;;27.57;52.24
70921;BME280;58572;48.110;19.838;2023-09-18T12:03:42;97890.91;;;27.08;50.98
70921;BME280;58572;48.110;19.838;2023-09-18T12:06:11;97879.69;;;26.97;52.51
70921;BME280;58572;48.110;19.838;2023-09-18T12:08:40;97868.81;;;28.15;51.92
70921;BME280;58572;48.110;19.838;2023-09-18T12:11:08;97875.97;;;28.02;53.79
70921;BME280;58572;48.110;19.838;2023-09-18T12:13:35;97889.19;;;26.93;52.34
70921;BME280;58572;48.110;19.838;2023-09-18T12:16:04;97880.88;;;27.00;51.55
70921;BME280;58572;48.110;19.838;2023-09-18T12:18:32;97871.22;;;28.20;51.76
70921;BME280;58572;48.110;19.838;2023-09-18T12:21:02;97864.31;;;28.81;51.32
70921;BME280;58572;48.110;19.838;2023-09-18T12:23:41;97859.25;;;28.30;55.63
70921;BME280;58572;48.110;19.838;2023-09-18T12:26:10;97861.91;;;27.41;52.97
70921;BME280;58572;48.110;19.838;2023-09-18T12:28:39;97848.03;;;27.98;52.62
70921;BME280;58572;48.110;19.838;2023-09-18T12:31:10;97842.44;;;28.02;52.12
70921;BME280;58572;48.110;19.838;2023-09-18T12:33:38;97842.31;;;28.98;50.58
70921;BME280;58572;48.110;19.838;2023-09-18T12:36:07;97845.66;;;28.36;48.39
70921;BME280;58572;48.110;19.838;2023-09-18T12:38:35;97853.22;;;27.92;53.07
70921;BME280;58572;48.110;19.838;2023-09-18T12:41:04;97837.44;;;29.16;50.46
70921;BME280;58572;48.110;19.838;2023-09-18T12:43:36;97838.19;;;29.90;51.55
70921;BME280;58572;48.110;19.838;2023-09-18T12:46:05;97835.25;;;27.86;55.34
70921;BME280;58572;48.110;19.838;2023-09-18T12:48:32;97828.56;;;29.91;48.98
70921;BME280;58572;48.110;19.838;2023-09-18T12:51:03;97831.81;;;29.23;47.68
70921;BME280;58572;48.110;19.838;2023-09-18T12:53:31;97795.69;;;28.41;51.23
70921;BME280;58572;48.110;19.838;2023-09-18T12:56:07;97799.34;;;29.33;51.31
70921;BME280;58572;48.110;19.838;2023-09-18T12:58:35;97816.09;;;28.17;51.73
70921;BME280;58572;48.110;19.838;2023-09-18T13:01:06;97806.81;;;29.57;50.86